sensor_id;sensor_type;location;lat;lon;timestamp;P1;durP1;ratioP1;P2;durP2;ratioP2
70733;SDS011;58320;48.804;9.252;2022-10-17T00:02:04;5.55;;;3.40;;
70733;SDS011;58320;48.804;9.252;2022-10-17T00:04:29;12.03;;;4.37;;
70733;SDS011;58320;48.804;9.252;2022-10-17T00:06:55;6.63;;;4.13;;
70733;SDS011;58320;48.804;9.252;2022-10-17T00:09:21;7.70;;;3.80;;
70733;SDS011;58320;48.804;9.252;2022-10-17T00:11:46;7.00;;;3.70;;
70733;SDS011;58320;48.804;9.252;2022-10-17T00:14:12;7.10;;;3.40;;
70733;SDS011;58320;48.804;9.252;2022-10-17T00:16:38;9.80;;;4.20;;
70733;SDS011;58320;48.804;9.252;2022-10-17T00:19:04;9.27;;;4.25;;
70733;SDS011;58320;48.804;9.252;2022-10-17T00:21:31;9.95;;;4.22;;
70733;SDS011;58320;48.804;9.252;2022-10-17T00:23:58;7.88;;;4.05;;
70733;SDS011;58320;48.804;9.252;2022-10-17T00:26:25;9.93;;;4.93;;
70733;SDS011;58320;48.804;9.252;2022-10-17T00:28:53;12.18;;;5.22;;
70733;SDS011;58320;48.804;9.252;2022-10-17T00:31:20;12.25;;;4.93;;
70733;SDS011;58320;48.804;9.252;2022-10-17T00:33:47;11.65;;;5.30;;
70733;SDS011;58320;48.804;9.252;2022-10-17T00:36:14;8.73;;;5.87;;
70733;SDS011;58320;48.804;9.252;2022-10-17T00:38:44;14.20;;;5.72;;
70733;SDS011;58320;48.804;9.252;2022-10-17T00:41:14;12.80;;;5.75;;
70733;SDS011;58320;48.804;9.252;2022-10-17T00:46:22;8.38;;;4.70;;
70733;SDS011;58320;48.804;9.252;2022-10-17T00:49:04;8.13;;;5.17;;
70733;SDS011;58320;48.804;9.252;2022-10-17T00:51:36;12.90;;;6.07;;
70733;SDS011;58320;48.804;9.252;2022-10-17T00:54:11;10.88;;;5.45;;
70733;SDS011;58320;48.804;9.252;2022-10-17T00:56:40;8.85;;;5.05;;
70733;SDS011;58320;48.804;9.252;2022-10-17T00:59:08;9.35;;;5.28;;
70733;SDS011;58320;48.804;9.252;2022-10-17T01:01:37;7.80;;;5.03;;
70733;SDS011;58320;48.804;9.252;2022-10-17T01:04:07;10.30;;;5.63;;
70733;SDS011;58320;48.804;9.252;2022-10-17T01:06:34;10.98;;;6.35;;
70733;SDS011;58320;48.804;9.252;2022-10-17T01:08:59;10.40;;;5.57;;
70733;SDS011;58320;48.804;9.252;2022-10-17T01:11:34;17.83;;;5.70;;
70733;SDS011;58320;48.804;9.252;2022-10-17T01:14:30;10.32;;;4.57;;
70733;SDS011;58320;48.804;9.252;2022-10-17T01:31:08;12.18;;;5.40;;
70733;SDS011;58320;48.804;9.252;2022-10-17T01:33:43;9.90;;;4.97;;
70733;SDS011;58320;48.804;9.252;2022-10-17T01:42:27;11.00;;;4.80;;
70733;SDS011;58320;48.804;9.252;2022-10-17T01:45:26;9.57;;;4.53;;
70733;SDS011;58320;48.804;9.252;2022-10-17T01:48:08;6.97;;;4.10;;
70733;SDS011;58320;48.804;9.252;2022-10-17T01:50:50;9.25;;;4.03;;
70733;SDS011;58320;48.804;9.252;2022-10-17T01:53:32;8.67;;;4.50;;
70733;SDS011;58320;48.804;9.252;2022-10-17T01:56:03;7.53;;;4.38;;
70733;SDS011;58320;48.804;9.252;2022-10-17T01:58:34;9.18;;;4.40;;
70733;SDS011;58320;48.804;9.252;2022-10-17T02:01:05;9.32;;;4.50;;
70733;SDS011;58320;48.804;9.252;2022-10-17T02:03:34;7.35;;;3.80;;
70733;SDS011;58320;48.804;9.252;2022-10-17T02:06:00;6.00;;;3.60;;
70733;SDS011;58320;48.804;9.252;2022-10-17T02:08:40;8.30;;;3.63;;
70733;SDS011;58320;48.804;9.252;2022-10-17T02:11:21;9.50;;;3.92;;
70733;SDS011;58320;48.804;9.252;2022-10-17T02:19:30;8.25;;;4.40;;
70733;SDS011;58320;48.804;9.252;2022-10-17T02:22:42;10.85;;;4.60;;
70733;SDS011;58320;48.804;9.252;2022-10-17T02:31:03;7.73;;;4.50;;
70733;SDS011;58320;48.804;9.252;2022-10-17T02:34:02;7.90;;;4.30;;
70733;SDS011;58320;48.804;9.252;2022-10-17T02:36:40;8.70;;;4.85;;
70733;SDS011;58320;48.804;9.252;2022-10-17T02:39:12;8.55;;;4.70;;
70733;SDS011;58320;48.804;9.252;2022-10-17T02:41:40;8.20;;;4.50;;
70733;SDS011;58320;48.804;9.252;2022-10-17T02:44:08;11.50;;;4.47;;
70733;SDS011;58320;48.804;9.252;2022-10-17T02:46:36;9.32;;;4.63;;
70733;SDS011;58320;48.804;9.252;2022-10-17T02:49:24;16.30;;;5.95;;
70733;SDS011;58320;48.804;9.252;2022-10-17T02:54:35;10.05;;;5.65;;
70733;SDS011;58320;48.804;9.252;2022-10-17T02:59:58;10.90;;;5.40;;
70733;SDS011;58320;48.804;9.252;2022-10-17T03:02:26;11.98;;;5.38;;
70733;SDS011;58320;48.804;9.252;2022-10-17T03:04:52;12.80;;;5.65;;
70733;SDS011;58320;48.804;9.252;2022-10-17T03:07:18;11.35;;;5.40;;
70733;SDS011;58320;48.804;9.252;2022-10-17T03:10:07;10.87;;;5.80;;
70733;SDS011;58320;48.804;9.252;2022-10-17T03:12:34;11.02;;;5.70;;
70733;SDS011;58320;48.804;9.252;2022-10-17T03:14:59;12.43;;;5.50;;
70733;SDS011;58320;48.804;9.252;2022-10-17T03:17:26;13.40;;;5.63;;
70733;SDS011;58320;48.804;9.252;2022-10-17T03:19:52;15.07;;;6.13;;
70733;SDS011;58320;48.804;9.252;2022-10-17T03:22:17;12.70;;;6.20;;
70733;SDS011;58320;48.804;9.252;2022-10-17T03:24:43;13.57;;;5.60;;
70733;SDS011;58320;48.804;9.252;2022-10-17T03:27:09;11.50;;;5.23;;
70733;SDS011;58320;48.804;9.252;2022-10-17T03:29:38;11.88;;;5.28;;
70733;SDS011;58320;48.804;9.252;2022-10-17T03:32:04;10.77;;;4.70;;
70733;SDS011;58320;48.804;9.252;2022-10-17T03:34:30;10.43;;;4.65;;
70733;SDS011;58320;48.804;9.252;2022-10-17T03:36:56;11.07;;;4.93;;
70733;SDS011;58320;48.804;9.252;2022-10-17T03:39:21;10.40;;;5.17;;
70733;SDS011;58320;48.804;9.252;2022-10-17T03:41:47;8.02;;;4.05;;
70733;SDS011;58320;48.804;9.252;2022-10-17T03:44:13;9.90;;;5.00;;
70733;SDS011;58320;48.804;9.252;2022-10-17T03:46:39;7.90;;;4.68;;
70733;SDS011;58320;48.804;9.252;2022-10-17T03:49:05;11.60;;;4.83;;
70733;SDS011;58320;48.804;9.252;2022-10-17T03:51:33;8.75;;;4.65;;
70733;SDS011;58320;48.804;9.252;2022-10-17T03:53:59;11.65;;;4.65;;
70733;SDS011;58320;48.804;9.252;2022-10-17T03:56:25;7.90;;;4.45;;
70733;SDS011;58320;48.804;9.252;2022-10-17T03:58:52;9.75;;;4.65;;
70733;SDS011;58320;48.804;9.252;2022-10-17T04:01:19;9.07;;;4.60;;
70733;SDS011;58320;48.804;9.252;2022-10-17T04:03:50;7.88;;;4.45;;
70733;SDS011;58320;48.804;9.252;2022-10-17T04:06:17;11.73;;;4.50;;
70733;SDS011;58320;48.804;9.252;2022-10-17T04:08:45;7.05;;;4.53;;
70733;SDS011;58320;48.804;9.252;2022-10-17T04:11:15;9.00;;;4.18;;
70733;SDS011;58320;48.804;9.252;2022-10-17T04:13:44;7.33;;;3.73;;
70733;SDS011;58320;48.804;9.252;2022-10-17T04:16:12;7.00;;;3.55;;
70733;SDS011;58320;48.804;9.252;2022-10-17T04:18:40;5.95;;;3.58;;
70733;SDS011;58320;48.804;9.252;2022-10-17T04:21:07;6.68;;;4.15;;
70733;SDS011;58320;48.804;9.252;2022-10-17T04:23:33;9.43;;;4.05;;
70733;SDS011;58320;48.804;9.252;2022-10-17T04:26:00;8.73;;;4.17;;
70733;SDS011;58320;48.804;9.252;2022-10-17T04:28:27;10.07;;;4.68;;
70733;SDS011;58320;48.804;9.252;2022-10-17T04:31:04;13.75;;;4.60;;
70733;SDS011;58320;48.804;9.252;2022-10-17T04:33:32;6.97;;;4.03;;
70733;SDS011;58320;48.804;9.252;2022-10-17T04:35:59;9.43;;;4.93;;
70733;SDS011;58320;48.804;9.252;2022-10-17T04:38:34;11.57;;;5.50;;
70733;SDS011;58320;48.804;9.252;2022-10-17T04:41:02;10.73;;;5.32;;
70733;SDS011;58320;48.804;9.252;2022-10-17T04:43:31;10.00;;;6.38;;
70733;SDS011;58320;48.804;9.252;2022-10-17T04:46:01;11.15;;;5.80;;
70733;SDS011;58320;48.804;9.252;2022-10-17T04:48:30;9.82;;;5.60;;
70733;SDS011;58320;48.804;9.252;2022-10-17T04:50:59;11.23;;;6.63;;
70733;SDS011;58320;48.804;9.252;2022-10-17T04:53:29;10.63;;;6.45;;
70733;SDS011;58320;48.804;9.252;2022-10-17T04:55:57;10.48;;;5.43;;
70733;SDS011;58320;48.804;9.252;2022-10-17T04:58:23;11.43;;;5.63;;
70733;SDS011;58320;48.804;9.252;2022-10-17T05:00:49;14.27;;;5.83;;
70733;SDS011;58320;48.804;9.252;2022-10-17T05:03:15;9.68;;;5.15;;
70733;SDS011;58320;48.804;9.252;2022-10-17T05:05:41;9.52;;;5.45;;
70733;SDS011;58320;48.804;9.252;2022-10-17T05:08:08;10.15;;;5.03;;
70733;SDS011;58320;48.804;9.252;2022-10-17T05:10:42;8.53;;;4.63;;
70733;SDS011;58320;48.804;9.252;2022-10-17T05:13:10;10.15;;;5.00;;
70733;SDS011;58320;48.804;9.252;2022-10-17T05:15:36;9.57;;;4.85;;
70733;SDS011;58320;48.804;9.252;2022-10-17T05:18:03;13.27;;;4.40;;
70733;SDS011;58320;48.804;9.252;2022-10-17T05:20:30;10.95;;;4.95;;
70733;SDS011;58320;48.804;9.252;2022-10-17T05:22:59;8.33;;;5.30;;
70733;SDS011;58320;48.804;9.252;2022-10-17T05:25:26;10.02;;;5.53;;
70733;SDS011;58320;48.804;9.252;2022-10-17T05:27:52;7.38;;;4.60;;
70733;SDS011;58320;48.804;9.252;2022-10-17T05:30:18;8.43;;;5.00;;
70733;SDS011;58320;48.804;9.252;2022-10-17T05:32:44;8.17;;;5.30;;
70733;SDS011;58320;48.804;9.252;2022-10-17T05:35:10;7.95;;;4.90;;
70733;SDS011;58320;48.804;9.252;2022-10-17T05:37:36;8.10;;;4.30;;
70733;SDS011;58320;48.804;9.252;2022-10-17T05:40:02;8.53;;;4.33;;
70733;SDS011;58320;48.804;9.252;2022-10-17T05:42:28;9.27;;;4.43;;
70733;SDS011;58320;48.804;9.252;2022-10-17T05:44:54;7.60;;;4.03;;
70733;SDS011;58320;48.804;9.252;2022-10-17T05:47:20;7.23;;;4.07;;
70733;SDS011;58320;48.804;9.252;2022-10-17T05:49:46;7.03;;;4.55;;
70733;SDS011;58320;48.804;9.252;2022-10-17T05:52:11;9.10;;;4.17;;
70733;SDS011;58320;48.804;9.252;2022-10-17T05:54:37;9.10;;;4.28;;
70733;SDS011;58320;48.804;9.252;2022-10-17T05:57:03;5.85;;;3.67;;
70733;SDS011;58320;48.804;9.252;2022-10-17T05:59:28;7.33;;;4.17;;
70733;SDS011;58320;48.804;9.252;2022-10-17T06:01:54;7.55;;;4.50;;
70733;SDS011;58320;48.804;9.252;2022-10-17T06:04:20;6.27;;;3.50;;
70733;SDS011;58320;48.804;9.252;2022-10-17T06:06:46;6.15;;;3.75;;
70733;SDS011;58320;48.804;9.252;2022-10-17T06:09:12;8.23;;;4.30;;
70733;SDS011;58320;48.804;9.252;2022-10-17T06:11:37;6.57;;;3.80;;
70733;SDS011;58320;48.804;9.252;2022-10-17T06:14:03;6.63;;;3.67;;
70733;SDS011;58320;48.804;9.252;2022-10-17T06:16:29;6.65;;;3.67;;
70733;SDS011;58320;48.804;9.252;2022-10-17T06:18:55;6.00;;;3.63;;
70733;SDS011;58320;48.804;9.252;2022-10-17T06:21:22;10.10;;;4.10;;
70733;SDS011;58320;48.804;9.252;2022-10-17T06:23:50;5.65;;;3.50;;
70733;SDS011;58320;48.804;9.252;2022-10-17T06:26:16;8.65;;;3.58;;
70733;SDS011;58320;48.804;9.252;2022-10-17T06:28:42;7.53;;;3.83;;
70733;SDS011;58320;48.804;9.252;2022-10-17T06:31:12;7.57;;;2.83;;
70733;SDS011;58320;48.804;9.252;2022-10-17T06:33:40;6.55;;;3.70;;
70733;SDS011;58320;48.804;9.252;2022-10-17T06:36:07;4.93;;;2.88;;
70733;SDS011;58320;48.804;9.252;2022-10-17T06:38:37;7.45;;;3.85;;
70733;SDS011;58320;48.804;9.252;2022-10-17T06:43:32;8.15;;;3.75;;
70733;SDS011;58320;48.804;9.252;2022-10-17T06:45:59;7.53;;;3.70;;
70733;SDS011;58320;48.804;9.252;2022-10-17T06:48:25;7.90;;;4.13;;
70733;SDS011;58320;48.804;9.252;2022-10-17T06:50:50;8.50;;;3.93;;
70733;SDS011;58320;48.804;9.252;2022-10-17T06:53:16;6.90;;;4.22;;
70733;SDS011;58320;48.804;9.252;2022-10-17T06:55:42;8.87;;;4.53;;
70733;SDS011;58320;48.804;9.252;2022-10-17T06:58:08;7.07;;;4.43;;
70733;SDS011;58320;48.804;9.252;2022-10-17T07:00:33;9.25;;;4.28;;
70733;SDS011;58320;48.804;9.252;2022-10-17T07:02:59;8.47;;;4.77;;
70733;SDS011;58320;48.804;9.252;2022-10-17T07:05:25;11.82;;;4.80;;
70733;SDS011;58320;48.804;9.252;2022-10-17T07:07:50;7.80;;;4.47;;
70733;SDS011;58320;48.804;9.252;2022-10-17T07:10:16;10.20;;;4.95;;
70733;SDS011;58320;48.804;9.252;2022-10-17T07:12:42;7.68;;;4.18;;
70733;SDS011;58320;48.804;9.252;2022-10-17T07:15:09;9.45;;;4.53;;
70733;SDS011;58320;48.804;9.252;2022-10-17T07:17:35;7.53;;;4.83;;
70733;SDS011;58320;48.804;9.252;2022-10-17T07:20:01;6.57;;;4.07;;
70733;SDS011;58320;48.804;9.252;2022-10-17T07:22:27;7.88;;;3.97;;
70733;SDS011;58320;48.804;9.252;2022-10-17T07:24:53;8.02;;;3.60;;
70733;SDS011;58320;48.804;9.252;2022-10-17T07:27:19;8.90;;;3.57;;
70733;SDS011;58320;48.804;9.252;2022-10-17T07:29:45;6.63;;;3.58;;
70733;SDS011;58320;48.804;9.252;2022-10-17T07:32:10;6.53;;;3.30;;
70733;SDS011;58320;48.804;9.252;2022-10-17T07:34:36;7.32;;;3.10;;
70733;SDS011;58320;48.804;9.252;2022-10-17T07:37:02;6.93;;;2.92;;
70733;SDS011;58320;48.804;9.252;2022-10-17T07:39:30;5.77;;;2.80;;
70733;SDS011;58320;48.804;9.252;2022-10-17T07:41:56;7.43;;;2.63;;
70733;SDS011;58320;48.804;9.252;2022-10-17T07:44:22;5.70;;;2.72;;
70733;SDS011;58320;48.804;9.252;2022-10-17T07:46:48;7.93;;;2.80;;
70733;SDS011;58320;48.804;9.252;2022-10-17T07:49:14;6.23;;;2.70;;
70733;SDS011;58320;48.804;9.252;2022-10-17T07:51:40;6.55;;;3.20;;
70733;SDS011;58320;48.804;9.252;2022-10-17T07:54:06;7.45;;;2.80;;
70733;SDS011;58320;48.804;9.252;2022-10-17T07:56:32;5.73;;;2.93;;
70733;SDS011;58320;48.804;9.252;2022-10-17T07:58:58;5.97;;;2.40;;
70733;SDS011;58320;48.804;9.252;2022-10-17T08:01:24;14.43;;;2.78;;
70733;SDS011;58320;48.804;9.252;2022-10-17T08:03:49;7.65;;;2.83;;
70733;SDS011;58320;48.804;9.252;2022-10-17T08:06:15;4.77;;;2.13;;
70733;SDS011;58320;48.804;9.252;2022-10-17T08:08:41;5.13;;;2.58;;
70733;SDS011;58320;48.804;9.252;2022-10-17T08:11:09;6.22;;;2.17;;
70733;SDS011;58320;48.804;9.252;2022-10-17T08:13:37;4.30;;;2.22;;
70733;SDS011;58320;48.804;9.252;2022-10-17T08:16:05;5.00;;;2.47;;
70733;SDS011;58320;48.804;9.252;2022-10-17T08:18:35;7.50;;;2.60;;
70733;SDS011;58320;48.804;9.252;2022-10-17T08:21:02;4.78;;;2.33;;
70733;SDS011;58320;48.804;9.252;2022-10-17T08:23:30;5.05;;;2.13;;
70733;SDS011;58320;48.804;9.252;2022-10-17T08:26:00;6.15;;;2.33;;
70733;SDS011;58320;48.804;9.252;2022-10-17T08:28:28;6.53;;;2.60;;
70733;SDS011;58320;48.804;9.252;2022-10-17T08:31:00;4.15;;;2.30;;
70733;SDS011;58320;48.804;9.252;2022-10-17T08:33:31;6.63;;;2.30;;
70733;SDS011;58320;48.804;9.252;2022-10-17T08:36:01;4.50;;;2.35;;
70733;SDS011;58320;48.804;9.252;2022-10-17T08:38:28;5.43;;;2.40;;
70733;SDS011;58320;48.804;9.252;2022-10-17T08:40:56;5.38;;;2.40;;
70733;SDS011;58320;48.804;9.252;2022-10-17T08:46:10;4.03;;;1.90;;
70733;SDS011;58320;48.804;9.252;2022-10-17T08:48:41;4.57;;;2.22;;
70733;SDS011;58320;48.804;9.252;2022-10-17T08:53:55;6.50;;;2.10;;
70733;SDS011;58320;48.804;9.252;2022-10-17T08:56:48;8.55;;;2.70;;
70733;SDS011;58320;48.804;9.252;2022-10-17T08:59:16;3.65;;;1.90;;
70733;SDS011;58320;48.804;9.252;2022-10-17T09:01:52;4.43;;;1.80;;
70733;SDS011;58320;48.804;9.252;2022-10-17T09:11:03;6.93;;;2.15;;
70733;SDS011;58320;48.804;9.252;2022-10-17T09:17:02;5.43;;;2.00;;
70733;SDS011;58320;48.804;9.252;2022-10-17T09:22:29;9.45;;;2.10;;
70733;SDS011;58320;48.804;9.252;2022-10-17T09:25:22;5.40;;;2.05;;
70733;SDS011;58320;48.804;9.252;2022-10-17T09:28:25;11.68;;;2.10;;
70733;SDS011;58320;48.804;9.252;2022-10-17T09:31:00;9.73;;;1.98;;
70733;SDS011;58320;48.804;9.252;2022-10-17T09:33:27;4.50;;;1.90;;
70733;SDS011;58320;48.804;9.252;2022-10-17T09:36:16;4.25;;;1.80;;
70733;SDS011;58320;48.804;9.252;2022-10-17T09:38:56;4.63;;;2.30;;
70733;SDS011;58320;48.804;9.252;2022-10-17T09:41:28;5.00;;;2.45;;
70733;SDS011;58320;48.804;9.252;2022-10-17T09:44:07;6.95;;;2.10;;
70733;SDS011;58320;48.804;9.252;2022-10-17T09:49:33;5.10;;;2.00;;
70733;SDS011;58320;48.804;9.252;2022-10-17T09:52:04;8.80;;;2.30;;
70733;SDS011;58320;48.804;9.252;2022-10-17T09:57:08;6.18;;;2.40;;
70733;SDS011;58320;48.804;9.252;2022-10-17T09:59:37;7.40;;;2.30;;
70733;SDS011;58320;48.804;9.252;2022-10-17T10:07:28;4.20;;;2.58;;
70733;SDS011;58320;48.804;9.252;2022-10-17T10:09:59;7.10;;;2.50;;
70733;SDS011;58320;48.804;9.252;2022-10-17T10:12:31;8.80;;;2.60;;
70733;SDS011;58320;48.804;9.252;2022-10-17T10:14:59;6.50;;;2.78;;
70733;SDS011;58320;48.804;9.252;2022-10-17T10:23:04;5.35;;;2.53;;
70733;SDS011;58320;48.804;9.252;2022-10-17T10:25:55;7.87;;;2.40;;
70733;SDS011;58320;48.804;9.252;2022-10-17T10:28:25;4.10;;;2.47;;
70733;SDS011;58320;48.804;9.252;2022-10-17T10:30:57;4.68;;;2.45;;
70733;SDS011;58320;48.804;9.252;2022-10-17T10:33:28;6.97;;;2.40;;
70733;SDS011;58320;48.804;9.252;2022-10-17T10:35:59;4.55;;;2.28;;
70733;SDS011;58320;48.804;9.252;2022-10-17T10:38:29;4.00;;;2.33;;
70733;SDS011;58320;48.804;9.252;2022-10-17T10:41:01;8.70;;;2.50;;
70733;SDS011;58320;48.804;9.252;2022-10-17T10:43:45;9.07;;;2.70;;
70733;SDS011;58320;48.804;9.252;2022-10-17T10:46:26;4.57;;;2.45;;
70733;SDS011;58320;48.804;9.252;2022-10-17T10:51:34;5.90;;;2.00;;
70733;SDS011;58320;48.804;9.252;2022-10-17T10:56:50;7.57;;;2.72;;
70733;SDS011;58320;48.804;9.252;2022-10-17T11:04:27;6.43;;;2.40;;
70733;SDS011;58320;48.804;9.252;2022-10-17T11:07:12;5.67;;;2.07;;
70733;SDS011;58320;48.804;9.252;2022-10-17T11:18:41;5.80;;;2.40;;
70733;SDS011;58320;48.804;9.252;2022-10-17T11:23:42;9.25;;;2.30;;
70733;SDS011;58320;48.804;9.252;2022-10-17T11:26:20;4.00;;;2.08;;
70733;SDS011;58320;48.804;9.252;2022-10-17T11:28:53;6.07;;;1.90;;
70733;SDS011;58320;48.804;9.252;2022-10-17T11:31:26;6.15;;;2.30;;
70733;SDS011;58320;48.804;9.252;2022-10-17T11:36:26;4.60;;;2.03;;
70733;SDS011;58320;48.804;9.252;2022-10-17T11:41:41;5.13;;;1.80;;
70733;SDS011;58320;48.804;9.252;2022-10-17T11:44:17;5.18;;;1.80;;
70733;SDS011;58320;48.804;9.252;2022-10-17T11:46:56;5.20;;;1.92;;
70733;SDS011;58320;48.804;9.252;2022-10-17T11:49:30;3.78;;;1.88;;
70733;SDS011;58320;48.804;9.252;2022-10-17T11:54:48;4.93;;;1.90;;
70733;SDS011;58320;48.804;9.252;2022-10-17T11:57:34;6.60;;;1.80;;
70733;SDS011;58320;48.804;9.252;2022-10-17T12:00:55;5.53;;;2.00;;
70733;SDS011;58320;48.804;9.252;2022-10-17T12:06:41;3.22;;;1.75;;
70733;SDS011;58320;48.804;9.252;2022-10-17T12:12:04;6.73;;;2.07;;
70733;SDS011;58320;48.804;9.252;2022-10-17T12:14:44;6.20;;;2.03;;
70733;SDS011;58320;48.804;9.252;2022-10-17T12:22:49;4.03;;;1.88;;
70733;SDS011;58320;48.804;9.252;2022-10-17T12:25:25;4.75;;;2.10;;
70733;SDS011;58320;48.804;9.252;2022-10-17T12:28:39;5.53;;;1.97;;
70733;SDS011;58320;48.804;9.252;2022-10-17T12:31:08;4.95;;;1.80;;
70733;SDS011;58320;48.804;9.252;2022-10-17T12:42:12;4.77;;;1.80;;
70733;SDS011;58320;48.804;9.252;2022-10-17T13:03:21;4.65;;;1.63;;
70733;SDS011;58320;48.804;9.252;2022-10-17T13:05:56;4.93;;;1.85;;
70733;SDS011;58320;48.804;9.252;2022-10-17T13:08:27;7.30;;;1.60;;
70733;SDS011;58320;48.804;9.252;2022-10-17T13:10:54;4.57;;;1.80;;
70733;SDS011;58320;48.804;9.252;2022-10-17T13:19:12;7.25;;;2.05;;
70733;SDS011;58320;48.804;9.252;2022-10-17T13:21:54;4.47;;;1.60;;
70733;SDS011;58320;48.804;9.252;2022-10-17T13:24:35;4.88;;;1.85;;
70733;SDS011;58320;48.804;9.252;2022-10-17T13:27:04;4.60;;;2.00;;
70733;SDS011;58320;48.804;9.252;2022-10-17T13:29:49;7.23;;;2.20;;
70733;SDS011;58320;48.804;9.252;2022-10-17T13:32:15;6.70;;;2.28;;
70733;SDS011;58320;48.804;9.252;2022-10-17T13:34:41;5.07;;;2.05;;
70733;SDS011;58320;48.804;9.252;2022-10-17T13:37:09;5.43;;;2.10;;
70733;SDS011;58320;48.804;9.252;2022-10-17T13:39:42;6.90;;;2.27;;
70733;SDS011;58320;48.804;9.252;2022-10-17T13:42:20;9.18;;;2.33;;
70733;SDS011;58320;48.804;9.252;2022-10-17T13:44:51;5.65;;;2.40;;
70733;SDS011;58320;48.804;9.252;2022-10-17T13:47:27;9.95;;;2.00;;
70733;SDS011;58320;48.804;9.252;2022-10-17T13:50:00;4.93;;;2.47;;
70733;SDS011;58320;48.804;9.252;2022-10-17T13:52:27;6.57;;;2.07;;
70733;SDS011;58320;48.804;9.252;2022-10-17T13:54:54;6.50;;;1.90;;
70733;SDS011;58320;48.804;9.252;2022-10-17T13:57:31;5.18;;;2.13;;
70733;SDS011;58320;48.804;9.252;2022-10-17T13:59:58;6.30;;;2.27;;
70733;SDS011;58320;48.804;9.252;2022-10-17T14:02:35;6.32;;;2.50;;
70733;SDS011;58320;48.804;9.252;2022-10-17T14:07:44;6.03;;;2.05;;
70733;SDS011;58320;48.804;9.252;2022-10-17T14:10:29;5.87;;;2.13;;
70733;SDS011;58320;48.804;9.252;2022-10-17T14:13:01;6.85;;;2.00;;
70733;SDS011;58320;48.804;9.252;2022-10-17T14:15:32;3.45;;;1.67;;
70733;SDS011;58320;48.804;9.252;2022-10-17T14:18:04;5.57;;;1.88;;
70733;SDS011;58320;48.804;9.252;2022-10-17T14:20:33;4.90;;;2.00;;
70733;SDS011;58320;48.804;9.252;2022-10-17T14:23:00;5.40;;;1.73;;
70733;SDS011;58320;48.804;9.252;2022-10-17T14:30:38;8.15;;;2.70;;
70733;SDS011;58320;48.804;9.252;2022-10-17T14:33:07;3.97;;;2.08;;
70733;SDS011;58320;48.804;9.252;2022-10-17T14:35:39;6.27;;;2.20;;
70733;SDS011;58320;48.804;9.252;2022-10-17T14:38:17;3.85;;;2.25;;
70733;SDS011;58320;48.804;9.252;2022-10-17T14:40:50;3.47;;;1.90;;
70733;SDS011;58320;48.804;9.252;2022-10-17T14:43:24;3.35;;;1.70;;
70733;SDS011;58320;48.804;9.252;2022-10-17T14:45:57;4.53;;;1.80;;
70733;SDS011;58320;48.804;9.252;2022-10-17T14:48:25;4.27;;;1.57;;
70733;SDS011;58320;48.804;9.252;2022-10-17T14:53:41;6.28;;;2.08;;
70733;SDS011;58320;48.804;9.252;2022-10-17T14:56:25;4.80;;;1.70;;
70733;SDS011;58320;48.804;9.252;2022-10-17T14:58:59;5.07;;;2.00;;
70733;SDS011;58320;48.804;9.252;2022-10-17T15:01:26;5.40;;;1.98;;
70733;SDS011;58320;48.804;9.252;2022-10-17T15:03:53;4.40;;;2.03;;
70733;SDS011;58320;48.804;9.252;2022-10-17T15:06:19;9.02;;;2.10;;
70733;SDS011;58320;48.804;9.252;2022-10-17T15:08:51;4.38;;;1.98;;
70733;SDS011;58320;48.804;9.252;2022-10-17T15:11:17;4.63;;;1.80;;
70733;SDS011;58320;48.804;9.252;2022-10-17T15:13:43;3.80;;;1.80;;
70733;SDS011;58320;48.804;9.252;2022-10-17T15:16:14;5.00;;;1.73;;
70733;SDS011;58320;48.804;9.252;2022-10-17T15:18:52;5.75;;;1.90;;
70733;SDS011;58320;48.804;9.252;2022-10-17T15:21:19;2.90;;;1.60;;
70733;SDS011;58320;48.804;9.252;2022-10-17T15:23:47;3.92;;;1.60;;
70733;SDS011;58320;48.804;9.252;2022-10-17T15:28:42;3.47;;;1.63;;
70733;SDS011;58320;48.804;9.252;2022-10-17T15:31:12;3.25;;;1.73;;
70733;SDS011;58320;48.804;9.252;2022-10-17T15:33:40;5.27;;;2.00;;
70733;SDS011;58320;48.804;9.252;2022-10-17T15:38:52;3.67;;;1.88;;
70733;SDS011;58320;48.804;9.252;2022-10-17T15:41:25;4.78;;;2.00;;
70733;SDS011;58320;48.804;9.252;2022-10-17T15:43:53;5.13;;;1.85;;
70733;SDS011;58320;48.804;9.252;2022-10-17T15:46:23;4.00;;;1.90;;
70733;SDS011;58320;48.804;9.252;2022-10-17T15:48:53;7.70;;;2.70;;
70733;SDS011;58320;48.804;9.252;2022-10-17T15:51:20;5.57;;;2.00;;
70733;SDS011;58320;48.804;9.252;2022-10-17T15:53:47;3.90;;;2.00;;
70733;SDS011;58320;48.804;9.252;2022-10-17T15:56:20;3.58;;;1.92;;
70733;SDS011;58320;48.804;9.252;2022-10-17T15:58:49;3.73;;;2.00;;
70733;SDS011;58320;48.804;9.252;2022-10-17T16:01:19;3.90;;;2.20;;
70733;SDS011;58320;48.804;9.252;2022-10-17T16:03:51;5.60;;;1.90;;
70733;SDS011;58320;48.804;9.252;2022-10-17T16:06:17;6.45;;;1.90;;
70733;SDS011;58320;48.804;9.252;2022-10-17T16:08:45;9.10;;;2.60;;
70733;SDS011;58320;48.804;9.252;2022-10-17T16:13:43;4.63;;;2.13;;
70733;SDS011;58320;48.804;9.252;2022-10-17T16:16:15;4.85;;;2.47;;
70733;SDS011;58320;48.804;9.252;2022-10-17T16:18:41;6.72;;;2.53;;
70733;SDS011;58320;48.804;9.252;2022-10-17T16:21:08;7.03;;;2.50;;
70733;SDS011;58320;48.804;9.252;2022-10-17T16:23:39;4.73;;;2.53;;
70733;SDS011;58320;48.804;9.252;2022-10-17T16:26:06;5.13;;;2.45;;
70733;SDS011;58320;48.804;9.252;2022-10-17T16:28:33;5.25;;;2.50;;
70733;SDS011;58320;48.804;9.252;2022-10-17T16:31:00;8.00;;;2.97;;
70733;SDS011;58320;48.804;9.252;2022-10-17T16:33:26;6.55;;;2.53;;
70733;SDS011;58320;48.804;9.252;2022-10-17T16:35:52;6.30;;;2.67;;
70733;SDS011;58320;48.804;9.252;2022-10-17T16:38:18;7.60;;;2.63;;
70733;SDS011;58320;48.804;9.252;2022-10-17T16:40:43;5.82;;;2.58;;
70733;SDS011;58320;48.804;9.252;2022-10-17T16:43:10;8.20;;;2.90;;
70733;SDS011;58320;48.804;9.252;2022-10-17T16:45:37;5.15;;;2.38;;
70733;SDS011;58320;48.804;9.252;2022-10-17T16:48:03;8.55;;;2.53;;
70733;SDS011;58320;48.804;9.252;2022-10-17T16:50:30;4.38;;;2.10;;
70733;SDS011;58320;48.804;9.252;2022-10-17T16:52:59;4.10;;;2.03;;
70733;SDS011;58320;48.804;9.252;2022-10-17T16:55:27;5.22;;;2.20;;
70733;SDS011;58320;48.804;9.252;2022-10-17T16:57:52;5.40;;;2.60;;
70733;SDS011;58320;48.804;9.252;2022-10-17T17:00:18;6.93;;;2.90;;
70733;SDS011;58320;48.804;9.252;2022-10-17T17:02:46;6.78;;;3.30;;
70733;SDS011;58320;48.804;9.252;2022-10-17T17:05:12;7.10;;;2.70;;
70733;SDS011;58320;48.804;9.252;2022-10-17T17:07:38;6.35;;;3.28;;
70733;SDS011;58320;48.804;9.252;2022-10-17T17:10:04;8.27;;;2.80;;
70733;SDS011;58320;48.804;9.252;2022-10-17T17:12:31;9.05;;;3.05;;
70733;SDS011;58320;48.804;9.252;2022-10-17T17:14:59;7.53;;;3.20;;
70733;SDS011;58320;48.804;9.252;2022-10-17T17:17:25;9.73;;;3.10;;
70733;SDS011;58320;48.804;9.252;2022-10-17T17:19:51;7.80;;;3.60;;
70733;SDS011;58320;48.804;9.252;2022-10-17T17:22:17;8.37;;;3.90;;
70733;SDS011;58320;48.804;9.252;2022-10-17T17:24:43;10.43;;;4.50;;
70733;SDS011;58320;48.804;9.252;2022-10-17T17:27:09;6.95;;;3.85;;
70733;SDS011;58320;48.804;9.252;2022-10-17T17:29:34;6.83;;;3.30;;
70733;SDS011;58320;48.804;9.252;2022-10-17T17:32:00;9.32;;;4.18;;
70733;SDS011;58320;48.804;9.252;2022-10-17T17:34:26;9.43;;;3.90;;
70733;SDS011;58320;48.804;9.252;2022-10-17T17:36:52;6.93;;;3.63;;
70733;SDS011;58320;48.804;9.252;2022-10-17T17:39:18;8.77;;;4.50;;
70733;SDS011;58320;48.804;9.252;2022-10-17T17:41:43;9.63;;;3.80;;
70733;SDS011;58320;48.804;9.252;2022-10-17T17:44:10;5.40;;;2.70;;
70733;SDS011;58320;48.804;9.252;2022-10-17T17:46:37;6.70;;;2.92;;
70733;SDS011;58320;48.804;9.252;2022-10-17T17:49:03;5.82;;;2.55;;
70733;SDS011;58320;48.804;9.252;2022-10-17T17:51:29;7.93;;;3.33;;
70733;SDS011;58320;48.804;9.252;2022-10-17T17:53:55;10.00;;;3.60;;